This is the latest recevied weather packets stored in our database for station/object KD0JCP-10. If no packets are shown the sender has not sent any weather packets the latest 10 day(s).
| Time | Temp. | Humidity | Pressure | Rain* | Wind** | Luminosity | Snow |
|---|---|---|---|---|---|---|---|
| 1777504290 | 16.67° C | 39% | 1019.1 hPa | 0 mm | - | - | - |
| 1777503990 | 16.67° C | 40% | 1019.2 hPa | 0 mm | - | - | - |
| 1777503690 | 17.22° C | 39% | 1019.2 hPa | 0 mm | - | - | - |
| 1777503390 | 17.22° C | 40% | 1019.2 hPa | 0 mm | - | - | - |
| 1777503090 | 17.22° C | 40% | 1019.2 hPa | 0 mm | - | - | - |
| 1777502790 | 17.22° C | 39% | 1019.2 hPa | 0 mm | - | - | - |
| 1777502490 | 17.22° C | 39% | 1019.2 hPa | 0 mm | - | - | - |
| 1777502190 | 17.22° C | 39% | 1019.2 hPa | 0 mm | - | - | - |
| 1777501890 | 17.22° C | 41% | 1019.2 hPa | 0 mm | - | - | - |
| 1777501590 | 17.22° C | 41% | 1019.3 hPa | 0 mm | - | - | - |
| 1777501290 | 16.67° C | 42% | 1019.4 hPa | 0 mm | - | - | - |
| 1777500990 | 16.67° C | 42% | 1019.4 hPa | 0 mm | - | - | - |
| 1777500690 | 16.67° C | 41% | 1019.5 hPa | 0 mm | - | - | - |
| 1777500390 | 16.67° C | 40% | 1019.5 hPa | 0 mm | - | - | - |
| 1777500090 | 16.67° C | 43% | 1019.7 hPa | 0 mm | - | - | - |
| 1777499790 | 16.67° C | 42% | 1019.6 hPa | 0 mm | - | - | - |
| 1777499490 | 16.11° C | 42% | 1019.7 hPa | 0 mm | - | - | - |
| 1777499190 | 16.67° C | 43% | 1019.8 hPa | 0 mm | - | - | - |
| 1777498890 | 16.67° C | 41% | 1019.7 hPa | 0 mm | - | - | - |
| 1777498590 | 16.67° C | 41% | 1019.7 hPa | 0 mm | - | - | - |
| 1777498290 | 16.11° C | 47% | 1019.9 hPa | 0 mm | - | - | - |
| 1777497990 | 16.11° C | 44% | 1020 hPa | 0 mm | - | - | - |
| 1777497690 | 16.11° C | 41% | 1020 hPa | 0 mm | - | - | - |
| 1777497390 | 16.11° C | 43% | 1020.1 hPa | 0 mm | - | - | - |
| 1777497090 | 16.11° C | 43% | 1020.3 hPa | 0 mm | - | - | - |
* Rain latest hour (hover to see other rain measurements)
** Current wind speed in m/s (hover to see current wind gust speed)